Latest Weather Observations for Gympie

IDQ60801

Issued at 4:02 pm EST Sunday 29 March 2015 (issued every 30 minutes, with the page automatically refreshed every 10 minutes)

About weather observations | Map of weather stations | Latest weather observations for QLD | Other Formats
Station Details ID: 040093 Name: GYMPIE Lat: -26.18 Lon: 152.64 Height: 64.5 m
Data from the previous 72 hours. | See also: Recent months at Gympie
Date/Time
EST
Temp
°C
App
Temp
°C
Dew
Point
Rel
Hum
%
Delta-T
°C
Wind Press
QNH
hPa
Press
MSL
hPa
Rain
since 9 am
mm
Dir
 
Spd
km/h
Gust
km/h
Spd
kts
Gust
kts
29/04:00pm 27.0 26.9 16.0 51 6.8 E 11 19 6 10 1020.7 1020.4 0.0
29/03:30pm 27.3 27.6 16.0 50 6.9 E 9 22 5 12 1020.7 1020.4 0.0
29/03:00pm 27.5 27.1 16.1 49 7.0 ESE 13 20 7 11 1020.5 1020.2 0.0
29/02:30pm 27.3 26.8 16.0 50 7.0 ESE 13 20 7 11 1020.5 1020.2 0.0
29/02:00pm 26.8 26.5 16.4 53 6.4 ESE 13 22 7 12 1020.8 1020.5 0.0
29/01:30pm 27.4 27.4 17.3 54 6.4 E 13 22 7 12 1021.0 1020.7 0.0
29/01:00pm 26.8 26.7 17.0 55 6.1 ESE 13 24 7 13 1021.3 1021.0 0.0
29/12:30pm 27.9 29.0 18.0 55 6.3 SE 9 17 5 9 1021.7 1021.4 0.0
29/12:00pm 27.5 28.2 17.9 55 6.1 ESE 11 20 6 11 1022.0 1021.7 0.0
29/11:30am 27.5 28.1 17.7 55 6.2 ESE 11 20 6 11 1022.3 1022.0 0.0
29/11:00am 26.9 27.8 16.5 53 6.4 ESE 7 15 4 8 1022.8 1022.5 0.0
29/10:30am 26.6 28.5 19.0 63 4.9 SSE 7 15 4 8 1023.1 1022.8 0.0
29/10:00am 26.2 27.1 18.3 61 5.0 SE 11 22 6 12 1023.2 1022.9 0.0
29/09:30am 24.9 27.8 19.1 70 3.7 ESE 2 4 1 2 1023.3 1023.0 0.0
29/09:00am 24.8 27.0 19.2 71 3.6 SSE 6 9 3 5 1023.2 1022.9 0.0
29/08:30am 23.3 25.1 18.8 76 2.9 SE 7 11 4 6 1023.1 1022.8 0.0
29/08:00am 22.3 25.6 19.1 82 2.0 CALM 0 0 0 0 1022.7 1022.4 0.0
29/07:30am 20.9 23.5 18.3 85 1.6 S 2 2 1 1 1022.3 1022.0 0.0
29/07:00am 19.9 22.7 17.9 88 1.2 CALM 0 0 0 0 1021.8 1021.5 0.0
29/06:30am 19.0 21.7 17.7 92 0.8 CALM 0 0 0 0 1021.4 1021.1 0.0
29/06:00am 18.5 21.0 17.3 93 0.7 CALM 0 0 0 0 1021.0 1020.7 0.0
29/05:30am 18.9 21.1 17.4 91 0.9 ESE 2 4 1 2 1020.7 1020.4 0.0
29/05:00am 19.1 21.8 17.8 92 0.8 CALM 0 0 0 0 1020.3 1020.0 0.0
29/04:30am 19.4 22.2 17.9 91 0.9 CALM 0 0 0 0 1019.8 1019.5 0.0
29/04:00am 19.9 22.7 18.0 89 1.2 CALM 0 0 0 0 1019.8 1019.5 0.0
29/03:30am 20.0 22.7 17.8 87 1.4 CALM 0 0 0 0 1019.6 1019.3 0.0
29/03:00am 20.3 22.3 17.9 86 1.5 SE 4 6 2 3 1019.5 1019.2 0.0
29/02:30am 20.9 23.8 18.3 85 1.6 CALM 0 2 0 1 1019.8 1019.5 0.0
29/02:00am 21.2 23.7 18.2 83 1.9 SE 2 6 1 3 1020.0 1019.7 0.0
29/01:30am 21.1 23.3 18.3 84 1.7 SSE 4 7 2 4 1020.2 1019.9 0.0
29/01:00am 20.9 23.6 18.7 87 1.4 SSE 2 6 1 3 1020.1 1019.8 0.0
29/12:30am 21.2 23.6 18.9 87 1.5 SE 4 6 2 3 1020.2 1019.9 0.0
29/12:00am 21.4 23.9 19.0 86 1.5 SSE 4 6 2 3 1020.4 1020.1 0.0
 
Date/Time
EST
Temp
°C
App
Temp
°C
Dew
Point
Rel
Hum
%
Delta-T
°C
Wind Press
QNH
hPa
Press
MSL
hPa
Rain
since 9 am
mm
Dir
 
Spd
km/h
Gust
km/h
Spd
kts
Gust
kts
28/11:30pm 21.6 23.8 19.2 86 1.5 SSE 6 6 3 3 1020.6 1020.3 0.0
28/11:00pm 21.9 24.2 19.5 86 1.5 S 6 9 3 5 1021.0 1020.7 0.0
28/10:30pm 21.8 24.6 19.7 88 1.3 SSE 4 6 2 3 1020.9 1020.6 0.0
28/10:00pm 21.9 24.9 19.3 85 1.7 SSE 2 4 1 2 1021.0 1020.7 0.0
28/09:30pm 22.2 25.0 19.7 86 1.6 SSE 4 6 2 3 1020.9 1020.6 0.0
28/09:00pm 22.0 25.1 19.5 86 1.6 SSE 2 4 1 2 1020.8 1020.5 0.0
28/08:30pm 22.4 25.1 19.4 83 1.9 SSE 4 6 2 3 1020.8 1020.5 0.0
28/08:00pm 22.8 25.1 19.4 81 2.2 SSE 6 6 3 3 1020.5 1020.2 0.0
28/07:30pm 23.3 25.7 19.7 80 2.3 SSE 6 7 3 4 1020.0 1019.7 0.0
28/07:00pm 23.3 25.7 19.7 80 2.3 SSE 6 7 3 4 1019.6 1019.3 0.0
28/06:30pm 23.7 26.2 19.8 79 2.5 SSE 6 9 3 5 1019.2 1018.9 0.0
28/06:00pm 24.1 25.9 19.6 76 2.9 SE 9 17 5 9 1018.8 1018.5 0.0
28/05:30pm 25.0 26.9 19.8 73 3.4 ESE 9 17 5 9 1018.8 1018.5 0.0
28/05:00pm 25.1 27.3 20.4 75 3.1 SE 9 15 5 8 1018.5 1018.2 0.0
28/04:30pm 25.4 27.3 20.6 75 3.1 SE 11 20 6 11 1018.4 1018.1 0.0
28/04:00pm 26.7 29.3 21.2 72 3.6 SSE 9 17 5 9 1018.1 1017.8 0.0
28/03:30pm 25.9 27.1 20.7 73 3.4 ESE 15 22 8 12 1018.0 1017.7 0.0
28/03:00pm 26.3 27.9 20.8 71 3.6 ESE 13 24 7 13 1018.0 1017.7 0.0
28/02:30pm 26.9 28.8 21.4 72 3.7 ESE 13 20 7 11 1018.1 1017.8 0.0
28/02:00pm 25.5 27.4 22.0 81 2.3 ESE 15 24 8 13 1018.3 1018.0 0.0
28/01:30pm 24.9 27.8 22.4 86 1.7 SSE 11 17 6 9 1018.5 1018.2 0.0
28/01:00pm 28.9 32.1 21.7 65 4.8 ESE 7 15 4 8 1018.4 1018.1 0.0
28/12:30pm 29.0 31.6 21.2 62 5.2 E 9 17 5 9 1018.7 1018.4 0.0
28/12:00pm 27.6 30.2 21.2 68 4.3 ESE 9 17 5 9 1019.2 1018.9 0.0
28/11:30am 27.2 29.8 21.2 69 4.0 SE 9 15 5 8 1019.6 1019.3 0.0
28/11:00am 28.1 31.2 21.4 67 4.5 SE 7 15 4 8 1020.1 1019.8 0.0
28/10:30am 26.7 29.5 21.5 73 3.5 SE 9 15 5 8 1020.4 1020.1 0.0
28/10:00am 27.6 31.4 22.8 75 3.3 S 7 13 4 7 1020.3 1020.0 0.0
28/09:30am 26.4 30.6 23.1 82 2.2 SSE 6 9 3 5 1020.4 1020.1 0.0
28/09:00am 24.7 29.5 22.8 89 1.3 S 2 4 1 2 1020.5 1020.2 53.2
28/08:30am 23.9 28.0 22.3 91 1.1 SSE 4 6 2 3 1020.3 1020.0 53.2
28/08:00am 23.3 28.0 21.9 92 0.9 CALM 0 4 0 2 1020.2 1019.9 53.2
28/07:30am 22.8 27.2 22.1 96 0.5 SSE 2 6 1 3 1019.7 1019.4 53.2
28/07:00am 22.5 27.2 22.0 97 0.3 CALM 0 0 0 0 1019.3 1019.0 53.2
28/06:30am 22.2 26.8 21.7 97 0.3 CALM 0 0 0 0 1018.9 1018.6 53.2
28/06:00am 22.2 26.4 21.7 97 0.3 SE 2 2 1 1 1018.6 1018.3 53.2
28/05:30am 22.3 26.5 21.8 97 0.3 SSE 2 4 1 2 1018.4 1018.1 53.2
28/05:00am 22.3 26.9 21.8 97 0.3 CALM 0 4 0 2 1018.2 1017.9 53.2
28/04:30am 22.4 27.1 21.9 97 0.3 CALM 0 0 0 0 1017.8 1017.5 53.2
28/04:00am 22.4 27.1 21.9 97 0.3 CALM 0 0 0 0 1017.4 1017.1 53.2
28/03:30am 22.6 27.4 22.1 97 0.3 CALM 0 0 0 0 1017.3 1017.0 53.2
28/03:00am 22.6 27.4 22.1 97 0.3 CALM 0 0 0 0 1017.3 1017.0 53.2
28/02:30am 22.6 27.4 22.1 97 0.3 CALM 0 0 0 0 1017.4 1017.1 53.2
28/02:00am 22.7 27.6 22.4 98 0.2 CALM 0 0 0 0 1017.6 1017.3 53.2
28/01:30am 22.6 27.5 22.3 98 0.2 CALM 0 0 0 0 1017.8 1017.5 53.2
28/01:00am 22.6 27.5 22.3 98 0.2 CALM 0 0 0 0 1017.9 1017.6 53.2
28/12:30am 22.5 27.3 22.2 98 0.2 CALM 0 0 0 0 1018.1 1017.8 53.2
28/12:00am 22.5 27.3 22.2 98 0.2 CALM 0 0 0 0 1018.2 1017.9 53.2
 
Date/Time
EST
Temp
°C
App
Temp
°C
Dew
Point
Rel
Hum
%
Delta-T
°C
Wind Press
QNH
hPa
Press
MSL
hPa
Rain
since 9 am
mm
Dir
 
Spd
km/h
Gust
km/h
Spd
kts
Gust
kts
27/11:30pm 22.5 27.2 22.0 97 0.3 CALM 0 0 0 0 1018.4 1018.1 53.2
27/11:00pm 22.6 27.5 22.3 98 0.2 CALM 0 0 0 0 1018.6 1018.3 53.2
27/10:30pm 22.6 27.4 22.1 97 0.3 CALM 0 0 0 0 1018.8 1018.5 53.2
27/10:00pm 22.7 27.5 22.2 97 0.3 CALM 0 0 0 0 1018.9 1018.6 53.2
27/09:30pm 22.7 27.5 22.2 97 0.3 CALM 0 0 0 0 1019.0 1018.7 53.2
27/09:00pm 22.6 27.4 22.1 97 0.3 CALM 0 2 0 1 1019.1 1018.8 53.2
27/08:30pm 22.7 27.5 22.2 97 0.3 CALM 0 4 0 2 1018.9 1018.6 53.2
27/08:00pm 22.6 27.4 22.1 97 0.3 CALM 0 4 0 2 1018.4 1018.1 53.2
27/07:30pm 22.7 27.5 22.2 97 0.3 CALM 0 0 0 0 1018.2 1017.9 53.0
27/07:00pm 22.5 26.8 22.0 97 0.3 ENE 2 4 1 2 1017.8 1017.5 53.0
27/06:30pm 22.3 26.1 21.6 96 0.5 NW 4 6 2 3 1017.6 1017.3 52.0
27/06:00pm 22.9 25.8 21.7 93 0.8 N 9 17 5 9 1017.1 1016.8 47.8
27/05:30pm 23.3 25.2 22.1 93 0.8 NNE 15 24 8 13 1015.9 1015.6 35.6
27/05:00pm 28.1 31.7 23.0 74 3.5 ESE 9 20 5 11 1016.0 1015.7 0.4
27/04:30pm 29.9 32.8 21.8 62 5.5 NE 9 15 5 8 1015.3 1015.0 0.0
27/04:00pm 32.4 35.5 19.6 46 8.4 WNW 2 4 1 2 1014.9 1014.6 0.0
27/03:30pm 31.5 34.4 19.8 49 7.7 SSW 4 11 2 6 1014.9 1014.6 0.0
27/03:00pm 32.3 34.5 19.5 46 8.4 W 7 15 4 8 1015.0 1014.7 0.0
27/02:30pm 32.6 35.9 21.5 52 7.5 SW 6 11 3 6 1015.2 1014.9 0.0
27/02:00pm 30.5 32.9 20.1 53 6.9 SSW 7 15 4 8 1015.6 1015.3 0.0
27/01:30pm 31.5 33.9 20.1 50 7.6 W 7 13 4 7 1016.1 1015.8 0.0
27/01:00pm 30.8 33.5 20.7 55 6.7 W 7 15 4 8 1016.5 1016.2 0.0
27/12:30pm 31.1 33.4 20.7 54 6.9 WSW 9 13 5 7 1016.9 1016.6 0.0
27/12:00pm 30.8 34.0 21.3 57 6.4 WSW 6 9 3 5 1017.5 1017.2 0.0
27/11:30am 30.1 33.5 21.7 60 5.7 WNW 6 11 3 6 1018.1 1017.8 0.0
27/11:00am 29.8 33.2 21.7 61 5.5 WNW 6 13 3 7 1018.6 1018.3 0.0
27/10:30am 28.4 31.1 21.4 66 4.7 NW 9 15 5 8 1019.1 1018.8 0.0
27/10:00am 27.9 30.0 21.7 69 4.2 NNW 13 19 7 10 1019.3 1019.0 0.0
27/09:30am 27.2 30.2 21.9 73 3.6 NNW 9 15 5 8 1019.4 1019.1 0.0
27/09:00am 26.4 29.4 22.0 77 2.9 NNW 9 17 5 9 1019.3 1019.0 0.0
27/08:30am 25.7 30.2 22.2 81 2.4 WNW 2 7 1 4 1019.5 1019.2 0.0
27/08:00am 24.6 29.3 21.9 85 1.8 CALM 0 0 0 0 1019.4 1019.1 0.0
27/07:30am 23.7 28.5 22.1 91 1.1 CALM 0 0 0 0 1019.2 1018.9 0.0
27/07:00am 22.8 27.4 21.8 94 0.7 CALM 0 0 0 0 1018.8 1018.5 0.0
27/06:30am 21.8 26.0 21.0 95 0.5 CALM 0 0 0 0 1018.5 1018.2 0.0
27/06:00am 21.1 24.9 20.1 94 0.6 CALM 0 0 0 0 1018.1 1017.8 0.0
27/05:30am 21.4 25.4 20.6 95 0.5 CALM 0 0 0 0 1017.8 1017.5 0.0
27/05:00am 21.5 25.5 20.5 94 0.6 CALM 0 0 0 0 1017.6 1017.3 0.0
27/04:30am 21.8 26.0 21.0 95 0.5 CALM 0 0 0 0 1017.5 1017.2 0.0
27/04:00am 21.6 25.7 20.8 95 0.5 CALM 0 0 0 0 1017.3 1017.0 0.0
27/03:30am 21.4 25.4 20.6 95 0.5 CALM 0 0 0 0 1017.0 1016.7 0.0
27/03:00am 21.8 26.0 21.0 95 0.5 CALM 0 0 0 0 1017.2 1016.9 0.0
27/02:30am 21.8 25.9 20.8 94 0.7 CALM 0 0 0 0 1017.2 1016.9 0.0
27/02:00am 21.8 25.9 20.8 94 0.6 CALM 0 0 0 0 1017.4 1017.1 0.0
27/01:30am 21.9 25.8 21.1 95 0.5 NNW 2 2 1 1 1017.7 1017.4 0.0
27/01:00am 21.9 25.3 20.9 94 0.7 NW 4 6 2 3 1017.9 1017.6 0.0
27/12:30am 22.1 26.3 20.9 93 0.8 CALM 0 0 0 0 1018.2 1017.9 0.0
27/12:00am 22.6 27.0 21.4 93 0.8 CALM 0 0 0 0 1018.1 1017.8 0.0
 
Date/Time
EST
Temp
°C
App
Temp
°C
Dew
Point
Rel
Hum
%
Delta-T
°C
Wind Press
QNH
hPa
Press
MSL
hPa
Rain
since 9 am
mm
Dir
 
Spd
km/h
Gust
km/h
Spd
kts
Gust
kts
26/11:30pm 22.9 27.4 21.5 92 0.9 CALM 0 0 0 0 1018.3 1018.0 0.0
26/11:00pm 22.9 27.4 21.5 92 0.9 CALM 0 0 0 0 1018.4 1018.1 0.0
26/10:30pm 23.3 27.9 21.7 91 1.1 CALM 0 0 0 0 1018.4 1018.1 0.0
26/10:00pm 23.3 27.7 21.4 89 1.3 CALM 0 2 0 1 1018.7 1018.4 0.0
26/09:30pm 23.8 28.4 21.7 88 1.4 CALM 0 4 0 2 1018.8 1018.5 0.0
26/09:00pm 24.2 28.7 21.5 85 1.8 CALM 0 0 0 0 1018.7 1018.4 0.0
26/08:30pm 24.6 29.2 21.7 84 1.9 CALM 0 4 0 2 1018.4 1018.1 0.0
26/08:00pm 25.6 29.4 21.7 79 2.6 NNE 4 7 2 4 1018.1 1017.8 0.0
26/07:30pm 25.9 30.0 21.6 77 2.9 NE 2 6 1 3 1017.6 1017.3 0.0
26/07:00pm 26.4 29.9 21.8 76 3.1 NE 6 11 3 6 1017.0 1016.7 0.0
26/06:30pm 27.2 30.9 22.2 74 3.4 NE 6 11 3 6 1016.5 1016.2 0.0
26/06:00pm 28.2 31.4 21.7 68 4.4 ENE 7 15 4 8 1016.2 1015.9 0.0
26/05:30pm 30.3 31.7 19.6 52 7.0 NNE 11 17 6 9 1015.7 1015.4 0.0
26/05:00pm 31.0 32.3 19.4 50 7.6 NE 11 17 6 9 1015.0 1014.7 0.0
26/04:30pm 31.4 32.9 19.7 49 7.7 NE 11 19 6 10 1014.6 1014.3 0.0

Other Formats:

Comma delimited format used in spreadsheet applications
http://www.bom.gov.au/fwo/IDQ60801/IDQ60801.94566.axf

JavaScript Object Notation format (JSON) in row-major order
http://www.bom.gov.au/fwo/IDQ60801/IDQ60801.94566.json